Private Wetterstation Sandau
Wetterdaten: Freitag, 02.03.2012
Datum Zeit Temp. A. Feuchte A. Luftdruck Regen Wind Richtung Richtung Taupunkt Windchill
02.03.2012 00:02 8,2 C 86 % 1026,2 hPa 0,0 l/m 12,2 km/h (2 Bft) NW 315 6,0 C 6,1 C
02.03.2012 00:07 8,2 C 86 % 1026,2 hPa 0,0 l/m 6,1 km/h (2 Bft) N-NW 337 6,0 C 7,4 C
02.03.2012 00:12 8,2 C 86 % 1026,1 hPa 0,0 l/m 4,3 km/h (1 Bft) NW 315 6,0 C 8,2 C
02.03.2012 00:17 8,1 C 86 % 1026,3 hPa 0,0 l/m 2,9 km/h (1 Bft) NW 315 5,9 C 8,1 C
02.03.2012 00:22 8,1 C 86 % 1026,3 hPa 0,0 l/m 13,3 km/h (3 Bft) N-NW 337 5,9 C 5,8 C
02.03.2012 00:27 8,2 C 86 % 1026,4 hPa 0,0 l/m 5,8 km/h (2 Bft) W-NW 292 6,0 C 7,5 C
02.03.2012 00:32 8,2 C 87 % 1026,2 hPa 0,0 l/m 8,3 km/h (2 Bft) W 270 6,2 C 6,8 C
02.03.2012 00:37 8,2 C 87 % 1026,4 hPa 0,0 l/m 8,3 km/h (2 Bft) N-NW 337 6,2 C 6,8 C
02.03.2012 00:42 8,2 C 86 % 1026,4 hPa 0,0 l/m 7,6 km/h (2 Bft) NW 315 6,0 C 7,0 C
02.03.2012 00:47 8,2 C 86 % 1026,3 hPa 0,0 l/m 4,7 km/h (1 Bft) NW 315 6,0 C 7,8 C
02.03.2012 00:52 8,2 C 86 % 1026,4 hPa 0,0 l/m 4,7 km/h (1 Bft) W 270 6,0 C 7,8 C
02.03.2012 00:57 8,2 C 86 % 1026,2 hPa 0,0 l/m 6,1 km/h (2 Bft) W 270 6,0 C 7,4 C
02.03.2012 01:02 8,2 C 86 % 1026,4 hPa 0,0 l/m 5,0 km/h (1 Bft) W 270 6,0 C 7,7 C
02.03.2012 01:07 8,2 C 86 % 1026,4 hPa 0,0 l/m 12,2 km/h (2 Bft) W-NW 292 6,0 C 6,1 C
02.03.2012 01:12 8,2 C 86 % 1026,6 hPa 0,0 l/m 10,4 km/h (2 Bft) N-NW 337 6,0 C 6,4 C
02.03.2012 01:17 8,2 C 86 % 1026,6 hPa 0,0 l/m 14,0 km/h (3 Bft) N-NW 337 6,0 C 5,8 C
02.03.2012 01:22 8,1 C 86 % 1026,4 hPa 0,0 l/m 5,8 km/h (2 Bft) W 270 5,9 C 7,3 C
02.03.2012 01:27 8,1 C 86 % 1026,4 hPa 0,0 l/m 7,6 km/h (2 Bft) NW 315 5,9 C 6,9 C
02.03.2012 01:32 8,1 C 86 % 1026,5 hPa 0,0 l/m 4,3 km/h (1 Bft) N 360 5,9 C 8,1 C
02.03.2012 01:37 8,1 C 86 % 1026,5 hPa 0,0 l/m 14,4 km/h (3 Bft) NW 315 5,9 C 5,7 C
02.03.2012 01:42 8,0 C 86 % 1026,5 hPa 0,0 l/m 5,0 km/h (1 Bft) NW 315 5,8 C 7,5 C
02.03.2012 01:47 7,9 C 86 % 1026,6 hPa 0,0 l/m 8,3 km/h (2 Bft) N-NW 337 5,7 C 6,5 C
02.03.2012 01:52 7,9 C 86 % 1026,8 hPa 0,0 l/m 5,8 km/h (2 Bft) NW 315 5,7 C 7,1 C
02.03.2012 01:57 7,9 C 86 % 1026,7 hPa 0,0 l/m 7,6 km/h (2 Bft) N-NW 337 5,7 C 6,6 C
02.03.2012 02:02 7,9 C 86 % 1026,6 hPa 0,0 l/m 12,2 km/h (2 Bft) W-NW 292 5,7 C 5,7 C
02.03.2012 02:07 7,8 C 86 % 1026,7 hPa 0,0 l/m 9,4 km/h (2 Bft) NW 315 5,6 C 6,1 C
02.03.2012 02:12 7,8 C 86 % 1026,7 hPa 0,0 l/m 6,1 km/h (2 Bft) N-NO 22 5,6 C 6,9 C
02.03.2012 02:17 7,8 C 86 % 1026,6 hPa 0,0 l/m 7,6 km/h (2 Bft) NW 315 5,6 C 6,5 C
02.03.2012 02:22 7,8 C 86 % 1026,8 hPa 0,0 l/m 4,7 km/h (1 Bft) N 360 5,6 C 7,4 C
02.03.2012 02:27 7,8 C 86 % 1026,8 hPa 0,0 l/m 4,3 km/h (1 Bft) W 270 5,6 C 7,8 C
02.03.2012 02:32 7,8 C 86 % 1027,0 hPa 0,0 l/m 3,2 km/h (1 Bft) W 270 5,6 C 7,8 C
02.03.2012 02:37 7,7 C 86 % 1027,0 hPa 0,0 l/m 9,0 km/h (2 Bft) N-NW 337 5,5 C 6,1 C
02.03.2012 02:42 7,6 C 86 % 1026,8 hPa 0,0 l/m 7,2 km/h (2 Bft) NW 315 5,4 C 6,4 C
02.03.2012 02:47 7,6 C 85 % 1026,8 hPa 0,0 l/m 5,0 km/h (1 Bft) NO 45 5,2 C 7,0 C
02.03.2012 02:52 7,5 C 86 % 1026,9 hPa 0,0 l/m 8,3 km/h (2 Bft) W-NW 292 5,3 C 6,0 C
02.03.2012 02:57 7,5 C 86 % 1026,8 hPa 0,0 l/m 5,8 km/h (2 Bft) N-NW 337 5,3 C 6,7 C
02.03.2012 03:02 7,4 C 86 % 1026,8 hPa 0,0 l/m 0,0 km/h (0 Bft) N-NW 337 5,2 C 7,4 C
02.03.2012 03:07 7,4 C 86 % 1026,6 hPa 0,0 l/m 3,2 km/h (1 Bft) W-NW 292 5,2 C 7,4 C
02.03.2012 03:12 7,4 C 86 % 1026,6 hPa 0,0 l/m 2,9 km/h (1 Bft) NW 315 5,2 C 7,4 C
02.03.2012 03:17 7,4 C 86 % 1026,6 hPa 0,0 l/m 3,6 km/h (1 Bft) W 270 5,2 C 7,4 C
02.03.2012 03:22 7,4 C 86 % 1026,6 hPa 0,0 l/m 7,6 km/h (2 Bft) W 270 5,2 C 6,0 C
02.03.2012 03:27 7,4 C 86 % 1026,5 hPa 0,0 l/m 9,4 km/h (2 Bft) W 270 5,2 C 5,6 C
02.03.2012 03:32 7,5 C 86 % 1026,2 hPa 0,0 l/m 4,3 km/h (1 Bft) W-SW 247 5,3 C 7,5 C
02.03.2012 03:37 7,5 C 86 % 1026,3 hPa 0,0 l/m 7,2 km/h (2 Bft) W-NW 292 5,3 C 6,3 C
02.03.2012 03:42 7,5 C 86 % 1026,2 hPa 0,0 l/m 5,8 km/h (2 Bft) W-SW 247 5,3 C 6,7 C
02.03.2012 03:47 7,5 C 86 % 1026,2 hPa 0,0 l/m 4,7 km/h (1 Bft) NW 315 5,3 C 7,0 C
02.03.2012 03:52 7,5 C 86 % 1026,3 hPa 0,0 l/m 2,9 km/h (1 Bft) W 270 5,3 C 7,5 C
02.03.2012 03:57 7,5 C 86 % 1026,3 hPa 0,0 l/m 7,6 km/h (2 Bft) W-NW 292 5,3 C 6,2 C
02.03.2012 04:02 7,5 C 86 % 1026,3 hPa 0,0 l/m 2,5 km/h (1 Bft) W 270 5,3 C 7,5 C
02.03.2012 04:07 7,5 C 86 % 1026,3 hPa 0,0 l/m 3,2 km/h (1 Bft) W-NW 292 5,3 C 7,5 C
02.03.2012 04:12 7,5 C 86 % 1026,4 hPa 0,0 l/m 6,8 km/h (2 Bft) W 270 5,3 C 6,4 C
02.03.2012 04:17 7,5 C 86 % 1026,5 hPa 0,0 l/m 5,0 km/h (1 Bft) W-NW 292 5,3 C 6,9 C
02.03.2012 04:22 7,5 C 86 % 1026,4 hPa 0,0 l/m 9,4 km/h (2 Bft) W-SW 247 5,3 C 5,8 C
02.03.2012 04:27 7,6 C 86 % 1026,3 hPa 0,0 l/m 8,3 km/h (2 Bft) W 270 5,4 C 6,1 C
02.03.2012 04:32 7,6 C 86 % 1026,4 hPa 0,0 l/m 8,3 km/h (2 Bft) W 270 5,4 C 6,1 C
02.03.2012 04:37 7,5 C 86 % 1026,3 hPa 0,0 l/m 6,1 km/h (2 Bft) W 270 5,3 C 6,6 C
02.03.2012 04:42 7,5 C 86 % 1026,3 hPa 0,0 l/m 11,9 km/h (2 Bft) W 270 5,3 C 5,3 C
02.03.2012 04:47 7,4 C 86 % 1026,4 hPa 0,0 l/m 7,6 km/h (2 Bft) W-NW 292 5,2 C 6,0 C
02.03.2012 04:52 7,4 C 86 % 1026,5 hPa 0,0 l/m 8,6 km/h (2 Bft) W 270 5,2 C 5,8 C
02.03.2012 04:57 7,4 C 87 % 1026,6 hPa 0,0 l/m 6,1 km/h (2 Bft) W 270 5,4 C 6,5 C
02.03.2012 05:02 7,3 C 87 % 1026,7 hPa 0,0 l/m 7,2 km/h (2 Bft) W 270 5,3 C 6,0 C
02.03.2012 05:07 7,3 C 87 % 1026,7 hPa 0,0 l/m 5,8 km/h (2 Bft) W-NW 292 5,3 C 6,4 C
02.03.2012 05:12 7,2 C 86 % 1026,6 hPa 0,0 l/m 6,1 km/h (2 Bft) W-NW 292 5,0 C 6,2 C
02.03.2012 05:17 7,2 C 87 % 1026,8 hPa 0,0 l/m 7,2 km/h (2 Bft) W-NW 292 5,2 C 5,9 C
02.03.2012 05:22 7,1 C 87 % 1026,7 hPa 0,0 l/m 4,0 km/h (1 Bft) W 270 5,1 C 7,1 C
02.03.2012 05:27 7,0 C 87 % 1026,7 hPa 0,0 l/m 4,3 km/h (1 Bft) W-NW 292 5,0 C 7,0 C
02.03.2012 05:32 6,9 C 87 % 1026,8 hPa 0,0 l/m 2,5 km/h (1 Bft) W 270 4,9 C 6,9 C
02.03.2012 05:37 6,9 C 87 % 1026,7 hPa 0,0 l/m 4,7 km/h (1 Bft) W 270 4,9 C 6,3 C
02.03.2012 05:42 6,8 C 87 % 1026,9 hPa 0,0 l/m 2,9 km/h (1 Bft) W 270 4,8 C 6,8 C
02.03.2012 05:47 6,8 C 87 % 1026,7 hPa 0,0 l/m 2,2 km/h (1 Bft) W 270 4,8 C 6,8 C
02.03.2012 05:52 6,7 C 87 % 1026,6 hPa 0,0 l/m 4,7 km/h (1 Bft) W 270 4,7 C 6,1 C
02.03.2012 05:57 6,6 C 87 % 1026,8 hPa 0,0 l/m 2,9 km/h (1 Bft) W 270 4,6 C 6,6 C
02.03.2012 06:02 6,5 C 87 % 1026,7 hPa 0,0 l/m 4,0 km/h (1 Bft) W-NW 292 4,5 C 6,5 C
02.03.2012 06:07 6,5 C 87 % 1026,8 hPa 0,0 l/m 2,5 km/h (1 Bft) NW 315 4,5 C 6,5 C
02.03.2012 06:12 6,5 C 88 % 1026,7 hPa 0,0 l/m 7,9 km/h (2 Bft) W 270 4,7 C 4,9 C
02.03.2012 06:17 6,5 C 88 % 1026,9 hPa 0,0 l/m 10,4 km/h (2 Bft) W-NW 292 4,7 C 4,4 C
02.03.2012 06:22 6,5 C 88 % 1026,8 hPa 0,0 l/m 7,6 km/h (2 Bft) W 270 4,7 C 5,0 C
02.03.2012 06:27 6,6 C 88 % 1026,9 hPa 0,0 l/m 4,7 km/h (1 Bft) W-NW 292 4,8 C 6,0 C
02.03.2012 06:32 6,6 C 88 % 1026,8 hPa 0,0 l/m 10,1 km/h (2 Bft) NW 315 4,8 C 4,5 C
02.03.2012 06:37 6,6 C 88 % 1026,9 hPa 0,0 l/m 5,8 km/h (2 Bft) NW 315 4,8 C 5,6 C
02.03.2012 06:42 6,6 C 88 % 1026,9 hPa 0,0 l/m 6,1 km/h (2 Bft) N-NW 337 4,8 C 5,5 C
02.03.2012 06:47 6,6 C 88 % 1027,1 hPa 0,0 l/m 0,0 km/h (0 Bft) W-NW 292 4,8 C 6,6 C
02.03.2012 06:52 6,6 C 88 % 1027,1 hPa 0,0 l/m 4,0 km/h (1 Bft) W-NW 292 4,8 C 6,6 C
02.03.2012 06:57 6,6 C 89 % 1027,1 hPa 0,0 l/m 10,8 km/h (2 Bft) N 360 4,9 C 4,4 C
02.03.2012 07:02 6,6 C 89 % 1027,2 hPa 0,0 l/m 4,7 km/h (1 Bft) W-NW 292 4,9 C 6,0 C
02.03.2012 07:07 6,6 C 89 % 1027,0 hPa 0,0 l/m 7,2 km/h (2 Bft) NW 315 4,9 C 5,2 C
02.03.2012 07:12 6,6 C 89 % 1027,2 hPa 0,0 l/m 7,6 km/h (2 Bft) NW 315 4,9 C 5,1 C
02.03.2012 07:17 6,6 C 89 % 1027,0 hPa 0,0 l/m 7,6 km/h (2 Bft) W 270 4,9 C 5,1 C
02.03.2012 07:22 6,5 C 89 % 1027,2 hPa 0,0 l/m 6,5 km/h (2 Bft) W-NW 292 4,8 C 5,3 C
02.03.2012 07:27 6,5 C 89 % 1027,0 hPa 0,0 l/m 8,6 km/h (2 Bft) W-NW 292 4,8 C 4,8 C
02.03.2012 07:32 6,5 C 89 % 1027,3 hPa 0,0 l/m 3,2 km/h (1 Bft) W-NW 292 4,8 C 6,5 C
02.03.2012 07:37 6,5 C 89 % 1027,3 hPa 0,0 l/m 6,8 km/h (2 Bft) N-NW 337 4,8 C 5,2 C
02.03.2012 07:42 6,5 C 89 % 1027,2 hPa 0,0 l/m 3,2 km/h (1 Bft) W 270 4,8 C 6,5 C
02.03.2012 07:47 6,5 C 89 % 1027,2 hPa 0,0 l/m 8,6 km/h (2 Bft) W-NW 292 4,8 C 4,8 C
02.03.2012 07:52 6,5 C 89 % 1027,2 hPa 0,0 l/m 3,6 km/h (1 Bft) NW 315 4,8 C 6,5 C
02.03.2012 07:57 6,5 C 89 % 1027,3 hPa 0,0 l/m 6,1 km/h (2 Bft) W 270 4,8 C 5,4 C
02.03.2012 08:02 6,5 C 89 % 1027,4 hPa 0,0 l/m 3,6 km/h (1 Bft) N 360 4,8 C 6,5 C
02.03.2012 08:07 6,5 C 89 % 1027,4 hPa 0,0 l/m 5,8 km/h (2 Bft) N-NW 337 4,8 C 5,5 C
02.03.2012 08:12 6,5 C 89 % 1027,2 hPa 0,0 l/m 5,0 km/h (1 Bft) W-NW 292 4,8 C 5,8 C
02.03.2012 08:17 6,6 C 89 % 1027,3 hPa 0,0 l/m 16,2 km/h (3 Bft) W-NW 292 4,9 C 3,6 C
02.03.2012 08:22 6,6 C 88 % 1027,3 hPa 0,0 l/m 7,2 km/h (2 Bft) W 270 4,8 C 5,2 C
02.03.2012 08:27 6,6 C 88 % 1027,4 hPa 0,0 l/m 11,9 km/h (2 Bft) N-NW 337 4,8 C 4,2 C
02.03.2012 08:32 6,7 C 88 % 1027,6 hPa 0,0 l/m 6,1 km/h (2 Bft) NW 315 4,9 C 5,6 C
02.03.2012 08:37 6,6 C 88 % 1027,6 hPa 0,0 l/m 6,5 km/h (2 Bft) N-NO 22 4,8 C 5,4 C
02.03.2012 08:42 6,6 C 88 % 1027,4 hPa 0,0 l/m 2,2 km/h (1 Bft) NW 315 4,8 C 6,6 C
02.03.2012 08:47 6,7 C 88 % 1027,5 hPa 0,0 l/m 12,6 km/h (3 Bft) NW 315 4,9 C 4,2 C
02.03.2012 08:52 6,7 C 88 % 1027,7 hPa 0,0 l/m 7,2 km/h (2 Bft) N-NO 22 4,9 C 5,3 C
02.03.2012 08:57 6,7 C 88 % 1027,5 hPa 0,0 l/m 0,0 km/h (0 Bft) N 360 4,9 C 6,7 C
02.03.2012 09:02 6,8 C 88 % 1027,6 hPa 0,0 l/m 6,8 km/h (2 Bft) NO 45 5,0 C 5,6 C
02.03.2012 09:07 6,8 C 88 % 1027,7 hPa 0,0 l/m 6,8 km/h (2 Bft) N 360 5,0 C 5,6 C
02.03.2012 09:12 6,8 C 88 % 1027,9 hPa 0,0 l/m 10,8 km/h (2 Bft) O 90 5,0 C 4,7 C
02.03.2012 09:17 6,9 C 88 % 1027,7 hPa 0,0 l/m 6,1 km/h (2 Bft) NO 45 5,1 C 5,9 C
02.03.2012 09:22 6,8 C 87 % 1028,0 hPa 0,0 l/m 6,8 km/h (2 Bft) NO 45 4,8 C 5,6 C
02.03.2012 09:27 6,9 C 87 % 1027,9 hPa 0,0 l/m 4,7 km/h (1 Bft) NO 45 4,9 C 6,3 C
02.03.2012 09:32 6,9 C 87 % 1028,0 hPa 0,0 l/m 4,0 km/h (1 Bft) NO 45 4,9 C 6,9 C
02.03.2012 09:37 6,9 C 87 % 1028,1 hPa 0,0 l/m 5,0 km/h (1 Bft) N-NO 22 4,9 C 6,2 C
02.03.2012 09:42 6,9 C 87 % 1028,2 hPa 0,0 l/m 6,1 km/h (2 Bft) NO 45 4,9 C 5,9 C
02.03.2012 09:47 6,9 C 87 % 1028,3 hPa 0,0 l/m 1,4 km/h (1 Bft) NO 45 4,9 C 6,9 C
02.03.2012 09:52 7,0 C 88 % 1028,3 hPa 0,0 l/m 4,0 km/h (1 Bft) NW 315 5,2 C 7,0 C
02.03.2012 09:57 6,9 C 88 % 1028,6 hPa 0,0 l/m 2,2 km/h (1 Bft) NO 45 5,1 C 6,9 C
02.03.2012 10:02 6,9 C 87 % 1028,4 hPa 0,0 l/m 3,6 km/h (1 Bft) N-NO 22 4,9 C 6,9 C
02.03.2012 10:07 6,9 C 87 % 1028,3 hPa 0,0 l/m 0,0 km/h (0 Bft) N 360 4,9 C 6,9 C
02.03.2012 10:12 7,0 C 87 % 1028,4 hPa 0,0 l/m 0,0 km/h (0 Bft) N 360 5,0 C 7,0 C
02.03.2012 10:17 7,1 C 87 % 1028,5 hPa 0,0 l/m 1,4 km/h (1 Bft) N 360 5,1 C 7,1 C
02.03.2012 10:22 7,1 C 87 % 1028,5 hPa 0,0 l/m 4,7 km/h (1 Bft) NO 45 5,1 C 6,6 C
02.03.2012 10:27 7,1 C 87 % 1028,5 hPa 0,0 l/m 6,1 km/h (2 Bft) NO 45 5,1 C 6,1 C
02.03.2012 10:32 7,2 C 87 % 1028,4 hPa 0,0 l/m 5,0 km/h (1 Bft) N-NO 22 5,2 C 6,6 C
02.03.2012 10:37 7,2 C 87 % 1028,6 hPa 0,0 l/m 3,2 km/h (1 Bft) N-NO 22 5,2 C 7,2 C
02.03.2012 10:42 7,2 C 86 % 1028,6 hPa 0,0 l/m 5,8 km/h (2 Bft) N 360 5,0 C 6,3 C
02.03.2012 10:47 7,2 C 86 % 1028,5 hPa 0,0 l/m 1,8 km/h (1 Bft) NO 45 5,0 C 7,2 C
02.03.2012 10:52 7,2 C 86 % 1028,5 hPa 0,0 l/m 4,7 km/h (1 Bft) N-NO 22 5,0 C 6,7 C
02.03.2012 10:57 7,2 C 86 % 1028,6 hPa 0,0 l/m 1,4 km/h (1 Bft) N-NW 337 5,0 C 7,2 C
02.03.2012 11:02 7,3 C 87 % 1028,7 hPa 0,0 l/m 6,1 km/h (2 Bft) N 360 5,3 C 6,3 C
02.03.2012 11:07 7,3 C 86 % 1028,7 hPa 0,0 l/m 3,2 km/h (1 Bft) NO 45 5,1 C 7,3 C
02.03.2012 11:12 7,3 C 86 % 1028,9 hPa 0,0 l/m 0,0 km/h (0 Bft) NO 45 5,1 C 7,3 C
02.03.2012 11:17 7,3 C 86 % 1028,8 hPa 0,0 l/m 4,0 km/h (1 Bft) N-NO 22 5,1 C 7,3 C
02.03.2012 11:22 7,3 C 86 % 1029,0 hPa 0,0 l/m 0,0 km/h (0 Bft) N 360 5,1 C 7,3 C
02.03.2012 11:27 7,3 C 86 % 1029,1 hPa 0,0 l/m 5,0 km/h (1 Bft) N 360 5,1 C 6,7 C
02.03.2012 11:32 7,3 C 86 % 1029,0 hPa 0,0 l/m 4,3 km/h (1 Bft) O-NO 67 5,1 C 7,3 C
02.03.2012 11:37 7,3 C 86 % 1029,1 hPa 0,0 l/m 5,8 km/h (2 Bft) NW 315 5,1 C 6,4 C
02.03.2012 11:42 7,3 C 86 % 1029,1 hPa 0,0 l/m 6,8 km/h (2 Bft) N-NO 22 5,1 C 6,1 C
02.03.2012 11:47 7,3 C 86 % 1029,1 hPa 0,0 l/m 4,0 km/h (1 Bft) N-NO 22 5,1 C 7,3 C
02.03.2012 11:52 7,3 C 86 % 1029,2 hPa 0,0 l/m 2,5 km/h (1 Bft) N-NO 22 5,1 C 7,3 C
02.03.2012 11:57 7,3 C 86 % 1029,1 hPa 0,0 l/m 2,5 km/h (1 Bft) NO 45 5,1 C 7,3 C
02.03.2012 12:02 7,4 C 86 % 1029,1 hPa 0,0 l/m 7,2 km/h (2 Bft) W-NW 292 5,2 C 6,1 C
02.03.2012 12:07 7,4 C 86 % 1029,1 hPa 0,0 l/m 5,4 km/h (1 Bft) N-NO 22 5,2 C 6,7 C
02.03.2012 12:12 7,5 C 85 % 1029,2 hPa 0,0 l/m 3,2 km/h (1 Bft) NO 45 5,1 C 7,5 C
02.03.2012 12:17 7,5 C 85 % 1029,1 hPa 0,0 l/m 4,3 km/h (1 Bft) NO 45 5,1 C 7,5 C
02.03.2012 12:22 7,6 C 85 % 1029,1 hPa 0,0 l/m 0,0 km/h (0 Bft) W-NW 292 5,2 C 7,6 C
02.03.2012 12:27 7,8 C 86 % 1028,9 hPa 0,0 l/m 2,5 km/h (1 Bft) NW 315 5,6 C 7,8 C
02.03.2012 12:32 7,9 C 86 % 1029,1 hPa 0,0 l/m 3,2 km/h (1 Bft) W-NW 292 5,7 C 7,9 C
02.03.2012 12:37 7,9 C 84 % 1029,1 hPa 0,0 l/m 5,8 km/h (2 Bft) NO 45 5,4 C 7,1 C
02.03.2012 12:42 7,8 C 84 % 1029,2 hPa 0,0 l/m 2,9 km/h (1 Bft) N-NO 22 5,3 C 7,8 C
02.03.2012 12:47 7,8 C 84 % 1029,0 hPa 0,0 l/m 2,9 km/h (1 Bft) NO 45 5,3 C 7,8 C
02.03.2012 12:52 7,8 C 84 % 1029,1 hPa 0,0 l/m 2,5 km/h (1 Bft) NW 315 5,3 C 7,8 C
02.03.2012 12:57 7,8 C 84 % 1029,1 hPa 0,0 l/m 5,0 km/h (1 Bft) N-NW 337 5,3 C 7,3 C
02.03.2012 13:02 7,8 C 84 % 1029,1 hPa 0,0 l/m 7,9 km/h (2 Bft) N-NW 337 5,3 C 6,4 C
02.03.2012 13:07 7,9 C 84 % 1029,2 hPa 0,0 l/m 3,2 km/h (1 Bft) NO 45 5,4 C 7,9 C
02.03.2012 13:12 7,9 C 84 % 1029,1 hPa 0,0 l/m 4,0 km/h (1 Bft) NO 45 5,4 C 7,9 C
02.03.2012 13:17 7,9 C 84 % 1029,1 hPa 0,0 l/m 1,4 km/h (1 Bft) N 360 5,4 C 7,9 C
02.03.2012 13:22 7,9 C 84 % 1029,1 hPa 0,0 l/m 4,0 km/h (1 Bft) N-NO 22 5,4 C 7,9 C
02.03.2012 13:27 7,9 C 84 % 1029,1 hPa 0,0 l/m 0,0 km/h (0 Bft) NW 315 5,4 C 7,9 C
02.03.2012 13:32 7,9 C 84 % 1029,1 hPa 0,0 l/m 2,5 km/h (1 Bft) N 360 5,4 C 7,9 C
02.03.2012 13:37 7,9 C 84 % 1029,3 hPa 0,0 l/m 3,2 km/h (1 Bft) N-NW 337 5,4 C 7,9 C
02.03.2012 13:42 7,9 C 84 % 1029,2 hPa 0,0 l/m 5,0 km/h (1 Bft) N-NO 22 5,4 C 7,4 C
02.03.2012 13:47 7,8 C 84 % 1029,2 hPa 0,0 l/m 2,9 km/h (1 Bft) N-NO 22 5,3 C 7,8 C
02.03.2012 13:52 7,8 C 84 % 1029,2 hPa 0,0 l/m 6,1 km/h (2 Bft) N-NO 22 5,3 C 6,9 C
02.03.2012 13:57 7,7 C 84 % 1029,1 hPa 0,0 l/m 6,8 km/h (2 Bft) NO 45 5,2 C 6,6 C
02.03.2012 14:02 7,6 C 84 % 1029,1 hPa 0,0 l/m 4,0 km/h (1 Bft) N-NO 22 5,1 C 7,6 C
02.03.2012 14:07 7,7 C 84 % 1029,1 hPa 0,0 l/m 4,0 km/h (1 Bft) N 360 5,2 C 7,7 C
02.03.2012 14:12 7,7 C 84 % 1029,1 hPa 0,0 l/m 5,0 km/h (1 Bft) NO 45 5,2 C 7,1 C
02.03.2012 14:17 7,6 C 83 % 1029,1 hPa 0,0 l/m 3,6 km/h (1 Bft) NO 45 4,9 C 7,6 C
02.03.2012 14:22 7,7 C 83 % 1029,0 hPa 0,0 l/m 2,2 km/h (1 Bft) O-NO 67 5,0 C 7,7 C
02.03.2012 14:27 7,8 C 83 % 1029,0 hPa 0,0 l/m 2,5 km/h (1 Bft) NO 45 5,1 C 7,8 C
02.03.2012 14:32 7,8 C 83 % 1029,0 hPa 0,0 l/m 3,2 km/h (1 Bft) NO 45 5,1 C 7,8 C
02.03.2012 14:37 7,8 C 83 % 1029,0 hPa 0,0 l/m 4,7 km/h (1 Bft) NO 45 5,1 C 7,4 C
02.03.2012 14:42 7,8 C 83 % 1029,0 hPa 0,0 l/m 5,8 km/h (2 Bft) NO 45 5,1 C 7,0 C
02.03.2012 14:47 7,8 C 83 % 1029,0 hPa 0,0 l/m 5,4 km/h (1 Bft) O-NO 67 5,1 C 7,1 C
02.03.2012 14:52 7,6 C 83 % 1028,9 hPa 0,0 l/m 2,9 km/h (1 Bft) N 360 4,9 C 7,6 C
02.03.2012 14:57 7,6 C 83 % 1028,9 hPa 0,0 l/m 4,0 km/h (1 Bft) N-NO 22 4,9 C 7,6 C
02.03.2012 15:02 7,6 C 83 % 1029,0 hPa 0,0 l/m 3,2 km/h (1 Bft) O-NO 67 4,9 C 7,6 C
02.03.2012 15:07 7,6 C 83 % 1029,1 hPa 0,0 l/m 2,2 km/h (1 Bft) O-NO 67 4,9 C 7,6 C
02.03.2012 15:12 7,8 C 83 % 1029,1 hPa 0,0 l/m 2,9 km/h (1 Bft) N 360 5,1 C 7,8 C
02.03.2012 15:17 7,7 C 83 % 1029,1 hPa 0,0 l/m 5,0 km/h (1 Bft) NO 45 5,0 C 7,1 C
02.03.2012 15:22 7,6 C 83 % 1029,2 hPa 0,0 l/m 2,2 km/h (1 Bft) N-NO 22 4,9 C 7,6 C
02.03.2012 15:27 7,6 C 83 % 1029,0 hPa 0,0 l/m 1,4 km/h (1 Bft) N-NO 22 4,9 C 7,6 C
02.03.2012 15:32 7,6 C 83 % 1029,0 hPa 0,0 l/m 4,7 km/h (1 Bft) O 90 4,9 C 7,1 C
02.03.2012 15:37 7,6 C 83 % 1029,2 hPa 0,0 l/m 7,2 km/h (2 Bft) N 360 4,9 C 6,4 C
02.03.2012 15:42 7,6 C 83 % 1029,1 hPa 0,0 l/m 7,2 km/h (2 Bft) NO 45 4,9 C 6,4 C
02.03.2012 15:47 7,4 C 83 % 1029,3 hPa 0,0 l/m 4,7 km/h (1 Bft) NO 45 4,7 C 6,9 C
02.03.2012 15:52 7,3 C 83 % 1029,4 hPa 0,0 l/m 10,1 km/h (2 Bft) N 360 4,6 C 5,4 C
02.03.2012 15:57 7,2 C 83 % 1029,4 hPa 0,0 l/m 2,2 km/h (1 Bft) N-NO 22 4,5 C 7,2 C
02.03.2012 16:02 7,2 C 84 % 1029,4 hPa 0,0 l/m 0,0 km/h (0 Bft) N 360 4,7 C 7,2 C
02.03.2012 16:07 7,1 C 84 % 1029,3 hPa 0,0 l/m 4,0 km/h (1 Bft) N-NW 337 4,6 C 7,1 C
02.03.2012 16:12 7,1 C 84 % 1029,4 hPa 0,0 l/m 2,5 km/h (1 Bft) N-NO 22 4,6 C 7,1 C
02.03.2012 16:17 7,1 C 84 % 1029,3 hPa 0,0 l/m 5,0 km/h (1 Bft) N-NO 22 4,6 C 6,5 C
02.03.2012 16:22 7,1 C 84 % 1029,4 hPa 0,0 l/m 4,0 km/h (1 Bft) NO 45 4,6 C 7,1 C
02.03.2012 16:27 7,0 C 84 % 1029,5 hPa 0,0 l/m 7,9 km/h (2 Bft) N-NO 22 4,5 C 5,5 C
02.03.2012 16:32 7,0 C 84 % 1029,4 hPa 0,0 l/m 4,0 km/h (1 Bft) NO 45 4,5 C 7,0 C
02.03.2012 16:37 6,9 C 84 % 1029,6 hPa 0,0 l/m 2,9 km/h (1 Bft) O 90 4,4 C 6,9 C
02.03.2012 16:42 6,9 C 84 % 1029,6 hPa 0,0 l/m 2,5 km/h (1 Bft) O-NO 67 4,4 C 6,9 C
02.03.2012 16:47 6,9 C 84 % 1029,6 hPa 0,0 l/m 5,0 km/h (1 Bft) O 90 4,4 C 6,2 C
02.03.2012 16:52 6,9 C 84 % 1029,7 hPa 0,0 l/m 5,4 km/h (1 Bft) O 90 4,4 C 6,1 C
02.03.2012 16:57 6,8 C 84 % 1029,8 hPa 0,0 l/m 2,5 km/h (1 Bft) O 90 4,3 C 6,8 C
02.03.2012 17:02 6,7 C 85 % 1029,7 hPa 0,0 l/m 6,5 km/h (2 Bft) O-NO 67 4,4 C 5,5 C
02.03.2012 17:07 6,7 C 85 % 1029,7 hPa 0,0 l/m 6,1 km/h (2 Bft) O 90 4,4 C 5,6 C
02.03.2012 17:12 6,6 C 85 % 1029,6 hPa 0,0 l/m 6,5 km/h (2 Bft) NO 45 4,3 C 5,4 C
02.03.2012 17:17 6,5 C 85 % 1029,9 hPa 0,0 l/m 9,7 km/h (2 Bft) N-NO 22 4,2 C 4,5 C
02.03.2012 17:22 6,4 C 84 % 1029,9 hPa 0,0 l/m 5,4 km/h (1 Bft) O-NO 67 3,9 C 5,5 C
02.03.2012 17:27 6,4 C 84 % 1029,8 hPa 0,0 l/m 2,5 km/h (1 Bft) O-NO 67 3,9 C 6,4 C
02.03.2012 17:32 6,3 C 84 % 1029,8 hPa 0,0 l/m 1,4 km/h (1 Bft) NO 45 3,8 C 6,3 C
02.03.2012 17:37 6,3 C 84 % 1029,8 hPa 0,0 l/m 4,0 km/h (1 Bft) O 90 3,8 C 6,3 C
02.03.2012 17:42 6,3 C 84 % 1029,9 hPa 0,0 l/m 2,2 km/h (1 Bft) O-NO 67 3,8 C 6,3 C
02.03.2012 17:47 6,3 C 84 % 1029,8 hPa 0,0 l/m 1,8 km/h (1 Bft) O 90 3,8 C 6,3 C
02.03.2012 17:52 6,3 C 84 % 1029,9 hPa 0,0 l/m 2,2 km/h (1 Bft) O 90 3,8 C 6,3 C
02.03.2012 17:57 6,3 C 84 % 1029,9 hPa 0,0 l/m 2,2 km/h (1 Bft) O-NO 67 3,8 C 6,3 C
02.03.2012 18:02 6,2 C 84 % 1029,9 hPa 0,0 l/m 5,8 km/h (2 Bft) O-NO 67 3,7 C 5,2 C
02.03.2012 18:07 6,2 C 84 % 1029,8 hPa 0,5 l/m 1,8 km/h (1 Bft) O 90 3,7 C 6,2 C
02.03.2012 18:12 6,2 C 84 % 1029,8 hPa 0,0 l/m 4,7 km/h (1 Bft) N-NO 22 3,7 C 5,6 C
02.03.2012 18:17 6,1 C 84 % 1029,9 hPa 0,0 l/m 2,2 km/h (1 Bft) N-NO 22 3,6 C 6,1 C
02.03.2012 18:22 5,9 C 84 % 1029,8 hPa 0,0 l/m 0,0 km/h (0 Bft) N 360 3,4 C 5,9 C
02.03.2012 18:27 5,9 C 84 % 1030,0 hPa 0,0 l/m 4,3 km/h (1 Bft) O 90 3,4 C 5,9 C
02.03.2012 18:32 5,9 C 85 % 1029,9 hPa 0,0 l/m 2,2 km/h (1 Bft) NO 45 3,6 C 5,9 C
02.03.2012 18:37 5,9 C 85 % 1029,8 hPa 0,0 l/m 2,2 km/h (1 Bft) O-NO 67 3,6 C 5,9 C
02.03.2012 18:42 5,9 C 85 % 1030,1 hPa 0,0 l/m 3,2 km/h (1 Bft) N 360 3,6 C 5,9 C
02.03.2012 18:47 5,8 C 85 % 1029,9 hPa 0,0 l/m 2,5 km/h (1 Bft) N-NO 22 3,5 C 5,8 C
02.03.2012 18:52 5,8 C 85 % 1029,9 hPa 0,0 l/m 0,0 km/h (0 Bft) O-NO 67 3,5 C 5,8 C
02.03.2012 18:57 5,8 C 85 % 1030,0 hPa 0,0 l/m 2,9 km/h (1 Bft) N-NO 22 3,5 C 5,8 C
02.03.2012 19:02 5,8 C 85 % 1030,1 hPa 0,0 l/m 0,0 km/h (0 Bft) NO 45 3,5 C 5,8 C
02.03.2012 19:07 5,8 C 85 % 1030,1 hPa 0,0 l/m 0,0 km/h (0 Bft) NO 45 3,5 C 5,8 C
02.03.2012 19:12 5,8 C 85 % 1030,1 hPa 0,0 l/m 0,0 km/h (0 Bft) NO 45 3,5 C 5,8 C
02.03.2012 19:17 5,8 C 85 % 1030,1 hPa 0,0 l/m 4,7 km/h (1 Bft) O 90 3,5 C 5,1 C
02.03.2012 19:22 5,8 C 85 % 1030,1 hPa 0,0 l/m 1,4 km/h (1 Bft) O-NO 67 3,5 C 5,8 C
02.03.2012 19:27 5,8 C 84 % 1030,3 hPa 0,0 l/m 0,0 km/h (0 Bft) O 90 3,3 C 5,8 C
02.03.2012 19:32 5,8 C 84 % 1030,1 hPa 0,0 l/m 2,2 km/h (1 Bft) O 90 3,3 C 5,8 C
02.03.2012 19:37 5,6 C 84 % 1030,2 hPa 0,0 l/m 1,1 km/h (1 Bft) O-NO 67 3,1 C 5,6 C
02.03.2012 19:42 5,6 C 84 % 1030,2 hPa 0,0 l/m 3,6 km/h (1 Bft) O 90 3,1 C 5,6 C
02.03.2012 19:47 5,6 C 84 % 1030,3 hPa 0,0 l/m 0,0 km/h (0 Bft) O 90 3,1 C 5,6 C
02.03.2012 19:52 5,6 C 84 % 1030,2 hPa 0,0 l/m 0,0 km/h (0 Bft) O-NO 67 3,1 C 5,6 C
02.03.2012 19:57 5,5 C 84 % 1030,1 hPa 0,0 l/m 2,2 km/h (1 Bft) NO 45 3,0 C 5,5 C
02.03.2012 20:02 5,5 C 84 % 1030,0 hPa 0,0 l/m 1,1 km/h (1 Bft) O-SO 112 3,0 C 5,5 C
02.03.2012 20:07 5,5 C 84 % 1030,2 hPa 0,0 l/m 0,0 km/h (0 Bft) O-SO 112 3,0 C 5,5 C
02.03.2012 20:12 5,5 C 84 % 1030,2 hPa 0,0 l/m 0,0 km/h (0 Bft) O 90 3,0 C 5,5 C
02.03.2012 20:17 5,5 C 84 % 1030,2 hPa 0,0 l/m 3,2 km/h (1 Bft) O-NO 67 3,0 C 5,5 C
02.03.2012 20:22 5,4 C 84 % 1030,1 hPa 0,0 l/m 1,4 km/h (1 Bft) O-NO 67 2,9 C 5,4 C
02.03.2012 20:27 5,4 C 84 % 1030,1 hPa 0,0 l/m 0,0 km/h (0 Bft) O-NO 67 2,9 C 5,4 C
02.03.2012 20:32 5,3 C 84 % 1030,4 hPa 0,0 l/m 0,0 km/h (0 Bft) O 90 2,8 C 5,3 C
02.03.2012 20:37 5,3 C 84 % 1030,2 hPa 0,0 l/m 0,0 km/h (0 Bft) O-NO 67 2,8 C 5,3 C
02.03.2012 20:42 5,1 C 84 % 1030,3 hPa 0,0 l/m 0,0 km/h (0 Bft) O-NO 67 2,6 C 5,1 C
02.03.2012 20:47 5,1 C 85 % 1030,3 hPa 0,0 l/m 0,0 km/h (0 Bft) O-NO 67 2,8 C 5,1 C
02.03.2012 20:52 5,0 C 85 % 1030,2 hPa 0,0 l/m 0,0 km/h (0 Bft) O-NO 67 2,7 C 5,0 C
02.03.2012 20:57 4,9 C 84 % 1030,4 hPa 0,0 l/m 2,5 km/h (1 Bft) O-NO 67 2,4 C 4,9 C
02.03.2012 21:02 4,9 C 85 % 1030,5 hPa 0,0 l/m 0,0 km/h (0 Bft) O-NO 67 2,6 C 4,9 C
02.03.2012 21:07 4,8 C 85 % 1030,6 hPa 0,0 l/m 0,0 km/h (0 Bft) O-NO 67 2,5 C 4,8 C
02.03.2012 21:12 4,8 C 85 % 1030,4 hPa 0,0 l/m 0,0 km/h (0 Bft) O-NO 67 2,5 C 4,8 C
02.03.2012 21:17 4,8 C 85 % 1030,5 hPa 0,0 l/m 0,0 km/h (0 Bft) O-SO 112 2,5 C 4,8 C
02.03.2012 21:22 4,8 C 86 % 1030,5 hPa 0,0 l/m 0,0 km/h (0 Bft) O-SO 112 2,7 C 4,8 C
02.03.2012 21:27 4,9 C 86 % 1030,4 hPa 0,0 l/m 2,5 km/h (1 Bft) S-SO 157 2,8 C 4,9 C
02.03.2012 21:32 4,9 C 86 % 1030,5 hPa 0,0 l/m 0,0 km/h (0 Bft) O-SO 112 2,8 C 4,9 C
02.03.2012 21:37 4,9 C 85 % 1030,5 hPa 0,0 l/m 0,0 km/h (0 Bft) O-SO 112 2,6 C 4,9 C
02.03.2012 21:42 4,9 C 85 % 1030,5 hPa 0,0 l/m 0,0 km/h (0 Bft) O-SO 112 2,6 C 4,9 C
02.03.2012 21:47 4,7 C 85 % 1030,4 hPa 0,0 l/m 0,0 km/h (0 Bft) O-SO 112 2,4 C 4,7 C
02.03.2012 21:52 4,5 C 85 % 1030,4 hPa 0,0 l/m 0,0 km/h (0 Bft) O-SO 112 2,2 C 4,5 C
02.03.2012 21:57 4,4 C 85 % 1030,5 hPa 0,0 l/m 0,0 km/h (0 Bft) O-SO 112 2,1 C 4,4 C
02.03.2012 22:02 4,3 C 85 % 1030,5 hPa 0,0 l/m 0,0 km/h (0 Bft) O-SO 112 2,0 C 4,3 C
02.03.2012 22:07 4,2 C 85 % 1030,6 hPa 0,0 l/m 0,0 km/h (0 Bft) O-SO 112 1,9 C 4,2 C
02.03.2012 22:12 4,1 C 85 % 1030,5 hPa 0,0 l/m 0,0 km/h (0 Bft) O-SO 112 1,8 C 4,1 C
02.03.2012 22:17 3,9 C 86 % 1030,6 hPa 0,0 l/m 0,0 km/h (0 Bft) O-SO 112 1,8 C 3,9 C
02.03.2012 22:22 3,9 C 86 % 1030,7 hPa 0,0 l/m 0,0 km/h (0 Bft) O-SO 112 1,8 C 3,9 C
02.03.2012 22:27 3,8 C 86 % 1030,6 hPa 0,0 l/m 0,0 km/h (0 Bft) O-SO 112 1,7 C 3,8 C
02.03.2012 22:32 3,7 C 86 % 1030,3 hPa 0,0 l/m 0,0 km/h (0 Bft) O-SO 112 1,6 C 3,7 C
02.03.2012 22:37 3,6 C 86 % 1030,4 hPa 0,0 l/m 1,4 km/h (1 Bft) O-SO 112 1,5 C 3,6 C
02.03.2012 22:42 3,5 C 86 % 1030,5 hPa 0,0 l/m 2,2 km/h (1 Bft) O-SO 112 1,4 C 3,5 C
02.03.2012 22:47 3,4 C 86 % 1030,5 hPa 0,0 l/m 0,0 km/h (0 Bft) O-SO 112 1,3 C 3,4 C
02.03.2012 22:52 3,4 C 87 % 1030,6 hPa 0,0 l/m 0,0 km/h (0 Bft) O-SO 112 1,4 C 3,4 C
02.03.2012 22:57 3,3 C 87 % 1030,6 hPa 0,0 l/m 2,2 km/h (1 Bft) O-SO 112 1,3 C 3,3 C
02.03.2012 23:02 3,2 C 87 % 1030,6 hPa 0,0 l/m 1,4 km/h (1 Bft) O-SO 112 1,2 C 3,2 C
02.03.2012 23:07 3,1 C 87 % 1030,6 hPa 0,0 l/m 1,4 km/h (1 Bft) O-SO 112 1,2 C 3,1 C
02.03.2012 23:12 3,1 C 87 % 1030,5 hPa 0,0 l/m 0,0 km/h (0 Bft) O-SO 112 1,2 C 3,1 C
02.03.2012 23:17 3,0 C 87 % 1030,6 hPa 0,0 l/m 0,0 km/h (0 Bft) O-SO 112 1,1 C 3,0 C
02.03.2012 23:22 2,9 C 87 % 1030,6 hPa 0,0 l/m 1,8 km/h (1 Bft) O-SO 112 1,0 C 2,9 C
02.03.2012 23:27 2,9 C 87 % 1030,7 hPa 0,0 l/m 0,0 km/h (0 Bft) O-NO 67 1,0 C 2,9 C
02.03.2012 23:32 2,9 C 88 % 1030,7 hPa 0,0 l/m 2,5 km/h (1 Bft) O-NO 67 1,1 C 2,9 C
02.03.2012 23:37 2,9 C 88 % 1030,8 hPa 0,0 l/m 0,0 km/h (0 Bft) O-NO 67 1,1 C 2,9 C
02.03.2012 23:42 2,8 C 88 % 1030,8 hPa 0,0 l/m 0,0 km/h (0 Bft) O-NO 67 1,0 C 2,8 C
02.03.2012 23:47 2,8 C 88 % 1030,6 hPa 0,0 l/m 0,0 km/h (0 Bft) O-NO 67 1,0 C 2,8 C
02.03.2012 23:52 2,8 C 88 % 1030,7 hPa 0,0 l/m 0,0 km/h (0 Bft) O-NO 67 1,0 C 2,8 C
02.03.2012 23:57 2,7 C 89 % 1030,6 hPa 0,0 l/m 0,0 km/h (0 Bft) O-NO 67 1,1 C 2,7 C
_ Min-Zeit 23:57 14:17 00:12 - 03:02 - - 23:22 23:57
Minimum _ 2,7 C 83 % 1026,1 hPa - 0,0 km/h (0 Bft) - - 1,0 C 2,7 C
_ Max-Zeit 00:02 06:57 23:37 18:07 08:17 - - 00:32 00:12
Maximum _ 8,2 C 89 % 1030,8 hPa 0,5 l/m 16,2 km/h
W-NW (3 Bft)
- - 6,2 C 8,2 C
Durchschnitt _ 6,6 C 86 % 1028,5 hPa #0,5 l/m 4,2 km/h (1 Bft) NO - 4,4 C 6,1 C
(c) by David Heller